DEFGB EDDF-EDDF
Flight info
| Callsign | DEFGB |
|---|---|
| Flight time | 0h 22m |
| Altitude | |
| Route | EDDF/18 |
| Aircraft | DA40 |
Departure
| Time | 2026-05-05 11:40 |
|---|---|
| Airport | Frankfurt Main Airport (EDDF) |
Arrival
| Time | 2026-05-05 12:02 |
|---|---|
| Airport | Frankfurt Main Airport (EDDF) |
| Time | Latitude | Longitude | Altitude | Speed | Heading |
|---|---|---|---|---|---|
| 2026-05-05 11:28 | 50.02211 | 8.53373 | 329 ft | 0 kts | 144° |
| 2026-05-05 11:29 | 50.02202 | 8.53379 | 325 ft | 1 kts | 170° |
| 2026-05-05 11:30 | 50.02195 | 8.53378 | 309 ft | 1 kts | 205° |
| 2026-05-05 11:30 | 50.02192 | 8.53367 | 312 ft | 3 kts | 273° |
| 2026-05-05 11:30 | 50.02207 | 8.53310 | 329 ft | 7 kts | 295° |
| 2026-05-05 11:30 | 50.02215 | 8.53284 | 328 ft | 8 kts | 293° |
| 2026-05-05 11:31 | 50.02180 | 8.53105 | 330 ft | 3 kts | 235° |
| 2026-05-05 11:31 | 50.02152 | 8.53039 | 330 ft | 9 kts | 248° |
| 2026-05-05 11:31 | 50.02147 | 8.52951 | 330 ft | 0 kts | 269° |
| 2026-05-05 11:33 | 50.02146 | 8.52938 | 330 ft | 4 kts | 267° |
| 2026-05-05 11:33 | 50.02145 | 8.52874 | 330 ft | 7 kts | 266° |
| 2026-05-05 11:33 | 50.02147 | 8.52839 | 330 ft | 0 kts | 306° |
| 2026-05-05 11:33 | 50.02157 | 8.52829 | 329 ft | 4 kts | 334° |
| 2026-05-05 11:34 | 50.02175 | 8.52830 | 330 ft | 5 kts | 4° |
| 2026-05-05 11:34 | 50.02222 | 8.52829 | 329 ft | 8 kts | 358° |
| 2026-05-05 11:34 | 50.02288 | 8.52830 | 330 ft | 9 kts | 357° |
| 2026-05-05 11:34 | 50.02321 | 8.52808 | 330 ft | 4 kts | 307° |
| 2026-05-05 11:35 | 50.02325 | 8.52781 | 330 ft | 0 kts | 257° |
| 2026-05-05 11:35 | 50.02325 | 8.52779 | 330 ft | 2 kts | 249° |
| 2026-05-05 11:35 | 50.02317 | 8.52748 | 330 ft | 1 kts | 250° |
| 2026-05-05 11:35 | 50.02316 | 8.52747 | 330 ft | 0 kts | 249° |
| 2026-05-05 11:37 | 50.02308 | 8.52703 | 328 ft | 8 kts | 264° |
| 2026-05-05 11:37 | 50.02283 | 8.52612 | 329 ft | 10 kts | 217° |
| 2026-05-05 11:37 | 50.02257 | 8.52606 | 330 ft | 0 kts | 182° |
| 2026-05-05 11:37 | 50.02257 | 8.52605 | 330 ft | 0 kts | 182° |
| 2026-05-05 11:38 | 50.02125 | 8.52606 | 329 ft | 47 kts | 180° |
| 2026-05-05 11:39 | 50.01638 | 8.52612 | 351 ft | 87 kts | 179° |
| 2026-05-05 11:39 | 50.00966 | 8.52667 | 437 ft | 103 kts | 176° |
| 2026-05-05 11:39 | 50.00553 | 8.53318 | 673 ft | 99 kts | 76° |
| 2026-05-05 11:39 | 50.00968 | 8.54197 | 844 ft | 101 kts | 59° |
| 2026-05-05 11:40 | 50.01181 | 8.55297 | 962 ft | 109 kts | 81° |
| 2026-05-05 11:40 | 50.01333 | 8.56503 | 1072 ft | 118 kts | 77° |
| 2026-05-05 11:40 | 50.01538 | 8.57721 | 1097 ft | 116 kts | 73° |
| 2026-05-05 11:40 | 50.01815 | 8.58899 | 1091 ft | 116 kts | 68° |
| 2026-05-05 11:41 | 50.02126 | 8.60055 | 1081 ft | 114 kts | 68° |
| 2026-05-05 11:41 | 50.02435 | 8.61183 | 984 ft | 112 kts | 66° |
| 2026-05-05 11:41 | 50.02732 | 8.62278 | 917 ft | 106 kts | 68° |
| 2026-05-05 11:41 | 50.03188 | 8.62986 | 799 ft | 97 kts | 354° |
| 2026-05-05 11:42 | 50.03656 | 8.62282 | 798 ft | 92 kts | 305° |
| 2026-05-05 11:42 | 50.04028 | 8.61476 | 797 ft | 88 kts | 305° |
| 2026-05-05 11:42 | 50.04311 | 8.60641 | 691 ft | 87 kts | 279° |
| 2026-05-05 11:42 | 50.04254 | 8.59699 | 569 ft | 91 kts | 251° |
| 2026-05-05 11:43 | 50.04038 | 8.58797 | 431 ft | 81 kts | 251° |
| 2026-05-05 11:43 | 50.03857 | 8.58028 | 362 ft | 67 kts | 250° |
| 2026-05-05 11:43 | 50.03680 | 8.57302 | 360 ft | 88 kts | 249° |
| 2026-05-05 11:43 | 50.03446 | 8.56346 | 508 ft | 97 kts | 250° |
| 2026-05-05 11:44 | 50.03191 | 8.55316 | 650 ft | 109 kts | 249° |
| 2026-05-05 11:44 | 50.02706 | 8.54428 | 771 ft | 118 kts | 192° |
| 2026-05-05 11:44 | 50.02026 | 8.55036 | 945 ft | 113 kts | 122° |
| 2026-05-05 11:44 | 50.01649 | 8.56090 | 1176 ft | 113 kts | 116° |
| 2026-05-05 11:45 | 50.01525 | 8.57301 | 1264 ft | 124 kts | 76° |
| 2026-05-05 11:45 | 50.01754 | 8.58600 | 1377 ft | 125 kts | 74° |
| 2026-05-05 11:45 | 50.02035 | 8.59846 | 1392 ft | 121 kts | 70° |
| 2026-05-05 11:45 | 50.02343 | 8.61018 | 1267 ft | 116 kts | 66° |
| 2026-05-05 11:46 | 50.02687 | 8.62135 | 1199 ft | 117 kts | 63° |
| 2026-05-05 11:46 | 50.03066 | 8.63257 | 1117 ft | 117 kts | 62° |
| 2026-05-05 11:46 | 50.03450 | 8.64360 | 1073 ft | 115 kts | 60° |
| 2026-05-05 11:46 | 50.03856 | 8.65442 | 997 ft | 117 kts | 57° |
| 2026-05-05 11:47 | 50.04298 | 8.66489 | 954 ft | 114 kts | 55° |
| 2026-05-05 11:47 | 50.04786 | 8.67445 | 911 ft | 112 kts | 34° |
| 2026-05-05 11:47 | 50.05514 | 8.67493 | 973 ft | 104 kts | 334° |
| 2026-05-05 11:47 | 50.05832 | 8.66523 | 879 ft | 108 kts | 259° |
| 2026-05-05 11:48 | 50.05387 | 8.64544 | 767 ft | 94 kts | 247° |
| 2026-05-05 11:48 | 50.05131 | 8.63614 | 691 ft | 90 kts | 251° |
| 2026-05-05 11:48 | 50.04933 | 8.62675 | 708 ft | 93 kts | 254° |
| 2026-05-05 11:49 | 50.04742 | 8.61801 | 680 ft | 82 kts | 251° |
| 2026-05-05 11:49 | 50.04556 | 8.60983 | 616 ft | 80 kts | 250° |
| 2026-05-05 11:49 | 50.04358 | 8.60149 | 560 ft | 84 kts | 250° |
| 2026-05-05 11:49 | 50.04153 | 8.59317 | 529 ft | 78 kts | 250° |
| 2026-05-05 11:50 | 50.03970 | 8.58541 | 420 ft | 73 kts | 251° |
| 2026-05-05 11:50 | 50.03813 | 8.57835 | 357 ft | 62 kts | 249° |
| 2026-05-05 11:50 | 50.03635 | 8.57110 | 383 ft | 85 kts | 249° |
| 2026-05-05 11:50 | 50.03393 | 8.56206 | 546 ft | 94 kts | 246° |
| 2026-05-05 11:51 | 50.03121 | 8.55268 | 747 ft | 99 kts | 245° |
| 2026-05-05 11:51 | 50.02716 | 8.54384 | 902 ft | 104 kts | 202° |
| 2026-05-05 11:51 | 50.02076 | 8.54651 | 1152 ft | 88 kts | 154° |
| 2026-05-05 11:51 | 50.01589 | 8.55322 | 1149 ft | 111 kts | 111° |
| 2026-05-05 11:52 | 50.01699 | 8.56436 | 1317 ft | 103 kts | 69° |
| 2026-05-05 11:52 | 50.01977 | 8.57449 | 1313 ft | 99 kts | 65° |
| 2026-05-05 11:52 | 50.02283 | 8.58398 | 1239 ft | 100 kts | 63° |
| 2026-05-05 11:52 | 50.02598 | 8.59360 | 1239 ft | 99 kts | 63° |
| 2026-05-05 11:53 | 50.02903 | 8.60299 | 1168 ft | 94 kts | 66° |
| 2026-05-05 11:53 | 50.03184 | 8.61229 | 1040 ft | 97 kts | 61° |
| 2026-05-05 11:53 | 50.03520 | 8.62132 | 911 ft | 100 kts | 56° |
| 2026-05-05 11:53 | 50.03960 | 8.62923 | 817 ft | 88 kts | 29° |
| 2026-05-05 11:54 | 50.04504 | 8.63048 | 744 ft | 83 kts | 323° |
| 2026-05-05 11:54 | 50.04684 | 8.62272 | 730 ft | 79 kts | 273° |
| 2026-05-05 11:54 | 50.04641 | 8.61417 | 691 ft | 80 kts | 258° |
| 2026-05-05 11:54 | 50.04475 | 8.60648 | 638 ft | 74 kts | 251° |
| 2026-05-05 11:55 | 50.04148 | 8.60160 | 622 ft | 68 kts | 178° |
| 2026-05-05 11:55 | 50.03735 | 8.60504 | 691 ft | 70 kts | 117° |
| 2026-05-05 11:55 | 50.03856 | 8.61130 | 821 ft | 65 kts | 31° |
| 2026-05-05 11:55 | 50.04225 | 8.60919 | 848 ft | 75 kts | 276° |
| 2026-05-05 11:56 | 50.04285 | 8.60036 | 719 ft | 86 kts | 263° |
| 2026-05-05 11:56 | 50.04122 | 8.59181 | 529 ft | 78 kts | 253° |
| 2026-05-05 11:56 | 50.03952 | 8.58437 | 391 ft | 69 kts | 247° |
| 2026-05-05 11:56 | 50.03801 | 8.57808 | 359 ft | 54 kts | 249° |
| 2026-05-05 11:57 | 50.03644 | 8.57134 | 370 ft | 83 kts | 246° |
| 2026-05-05 11:57 | 50.03426 | 8.56289 | 578 ft | 86 kts | 245° |
| 2026-05-05 11:57 | 50.03176 | 8.55447 | 794 ft | 86 kts | 242° |
| 2026-05-05 11:57 | 50.02783 | 8.54683 | 920 ft | 102 kts | 202° |
| 2026-05-05 11:58 | 50.02150 | 8.54972 | 1151 ft | 107 kts | 128° |
| 2026-05-05 11:58 | 50.01832 | 8.56073 | 1342 ft | 109 kts | 109° |
| 2026-05-05 11:58 | 50.01793 | 8.57202 | 1634 ft | 108 kts | 73° |
| 2026-05-05 11:58 | 50.02075 | 8.58332 | 1663 ft | 109 kts | 69° |
| 2026-05-05 11:59 | 50.02378 | 8.59374 | 1562 ft | 102 kts | 63° |
| 2026-05-05 11:59 | 50.02700 | 8.60349 | 1357 ft | 101 kts | 63° |
| 2026-05-05 11:59 | 50.03032 | 8.61294 | 1169 ft | 98 kts | 62° |
| 2026-05-05 11:59 | 50.03390 | 8.62210 | 973 ft | 99 kts | 58° |
| 2026-05-05 12:00 | 50.03805 | 8.63077 | 845 ft | 96 kts | 43° |
| 2026-05-05 12:00 | 50.04363 | 8.63277 | 891 ft | 82 kts | 342° |
| 2026-05-05 12:00 | 50.04665 | 8.62650 | 856 ft | 72 kts | 271° |
| 2026-05-05 12:00 | 50.04659 | 8.61889 | 804 ft | 70 kts | 260° |
| 2026-05-05 12:01 | 50.04570 | 8.61145 | 747 ft | 70 kts | 254° |
| 2026-05-05 12:01 | 50.04476 | 8.60663 | 700 ft | 69 kts | 250° |
| 2026-05-05 12:01 | 50.04323 | 8.59953 | 575 ft | 70 kts | 246° |
| 2026-05-05 12:01 | 50.04144 | 8.59235 | 517 ft | 67 kts | 246° |
| 2026-05-05 12:02 | 50.03993 | 8.58577 | 403 ft | 61 kts | 247° |
| 2026-05-05 12:02 | 50.03849 | 8.57992 | 362 ft | 53 kts | 244° |
| 2026-05-05 12:02 | 50.03734 | 8.57521 | 355 ft | 41 kts | 250° |
| 2026-05-05 12:02 | 50.03651 | 8.57199 | 350 ft | 14 kts | 225° |
| 2026-05-05 12:03 | 50.03578 | 8.57197 | 347 ft | 8 kts | 129° |
| 2026-05-05 12:03 | 50.03558 | 8.57253 | 348 ft | 5 kts | 134° |
| 2026-05-05 12:03 | 50.03532 | 8.57274 | 348 ft | 0 kts | 187° |
| 2026-05-05 12:04 | 50.03507 | 8.57269 | 348 ft | 8 kts | 193° |
| 2026-05-05 12:04 | 50.03451 | 8.57224 | 350 ft | 10 kts | 204° |
| 2026-05-05 12:04 | 50.03382 | 8.57188 | 349 ft | 12 kts | 219° |
| 2026-05-05 12:05 | 50.03337 | 8.57071 | 350 ft | 13 kts | 247° |
| 2026-05-05 12:05 | 50.03309 | 8.56927 | 347 ft | 15 kts | 255° |
| 2026-05-05 12:05 | 50.03293 | 8.56867 | 346 ft | 5 kts | 240° |